createdAt,value
2023-11-21T00:00:04.503Z,97121.00
2023-11-21T00:04:07.501Z,97114.00
2023-11-21T00:08:09.310Z,97112.00
2023-11-21T00:12:14.524Z,97117.00
2023-11-21T00:16:15.689Z,97131.00
2023-11-21T00:20:16.949Z,97120.00
2023-11-21T00:24:18.204Z,97109.00
2023-11-21T00:28:19.364Z,97106.00
2023-11-21T00:32:20.351Z,97123.00
2023-11-21T00:36:21.480Z,97122.00
2023-11-21T00:40:23.045Z,97125.00
2023-11-21T00:44:24.029Z,97115.00
2023-11-21T00:48:25.034Z,97116.00
2023-11-21T00:52:26.671Z,97122.00
2023-11-21T00:56:28.154Z,97119.00
2023-11-21T01:00:29.288Z,97115.00
2023-11-21T01:04:30.374Z,97114.00
2023-11-21T01:08:32.059Z,97121.00
2023-11-21T01:12:33.270Z,97119.00
2023-11-21T01:16:34.342Z,97132.00
2023-11-21T01:20:35.585Z,97150.00
2023-11-21T01:24:36.846Z,97142.00
2023-11-21T01:28:37.875Z,97151.00
2023-11-21T01:32:39.936Z,97142.00
2023-11-21T01:36:41.150Z,97148.00
2023-11-21T01:40:42.240Z,97152.00
2023-11-21T01:44:43.594Z,97144.00
2023-11-21T01:48:45.592Z,97158.00
2023-11-21T01:52:47.666Z,97151.00
2023-11-21T01:56:49.233Z,97158.00
2023-11-21T02:00:51.526Z,97154.00
2023-11-21T02:04:52.696Z,97171.00
2023-11-21T02:08:53.728Z,97160.00
2023-11-21T02:12:59.023Z,97179.00
2023-11-21T02:17:01.611Z,97175.00
2023-11-21T02:21:05.148Z,97175.00
2023-11-21T02:25:08.222Z,97173.00
2023-11-21T02:29:11.116Z,97164.00
2023-11-21T02:33:12.908Z,97175.00
2023-11-21T02:37:14.312Z,97179.00
2023-11-21T02:41:15.277Z,97175.00
2023-11-21T02:45:17.232Z,97180.00
2023-11-21T02:49:18.410Z,97173.00
2023-11-21T02:53:19.477Z,97173.00
2023-11-21T02:57:20.714Z,97177.00
2023-11-21T03:01:21.921Z,97175.00
2023-11-21T03:05:23.079Z,97174.00
2023-11-21T03:09:24.211Z,97179.00
2023-11-21T03:13:25.357Z,97180.00
2023-11-21T03:17:26.442Z,97182.00
2023-11-21T03:21:27.695Z,97185.00
2023-11-21T03:25:29.169Z,97188.00
2023-11-21T03:29:30.308Z,97190.00
2023-11-21T03:33:31.316Z,97199.00
2023-11-21T03:37:32.525Z,97204.00
2023-11-21T03:41:34.556Z,97210.00
2023-11-21T03:45:35.704Z,97213.00
2023-11-21T03:49:36.972Z,97208.00
2023-11-21T03:53:38.193Z,97208.00
2023-11-21T03:57:39.361Z,97213.00
2023-11-21T04:01:40.386Z,97223.00
2023-11-21T04:05:41.749Z,97223.00
2023-11-21T04:09:43.065Z,97219.00
2023-11-21T04:13:44.479Z,97219.00
2023-11-21T04:17:46.073Z,97224.00
2023-11-21T04:21:47.104Z,97106.00
2023-11-21T04:25:48.158Z,97233.00
2023-11-21T04:29:49.147Z,97241.00
2023-11-21T04:33:50.307Z,97239.00
2023-11-21T04:37:51.601Z,97244.00
2023-11-21T04:41:52.834Z,97255.00
2023-11-21T04:45:55.289Z,97258.00
2023-11-21T04:49:56.524Z,97263.00
2023-11-21T04:53:57.596Z,97269.00
2023-11-21T04:57:58.710Z,97271.00
2023-11-21T05:02:00.730Z,97280.00
2023-11-21T05:06:01.921Z,97282.00
2023-11-21T05:10:06.797Z,97287.00
2023-11-21T05:14:07.834Z,97282.00
2023-11-21T05:18:09.048Z,97294.00
2023-11-21T05:22:12.026Z,97296.00
2023-11-21T05:26:13.052Z,97299.00
2023-11-21T05:30:14.660Z,97304.00
2023-11-21T05:34:18.200Z,97312.00
2023-11-21T05:38:18.992Z,97322.00
2023-11-21T05:42:21.492Z,97323.00
2023-11-21T05:46:22.592Z,97327.00
2023-11-21T05:50:24.049Z,97316.00
2023-11-21T05:54:25.141Z,97333.00
2023-11-21T05:58:26.482Z,97335.00
2023-11-21T06:02:27.689Z,97339.00
2023-11-21T06:06:28.956Z,97347.00
2023-11-21T06:10:30.336Z,97349.00
2023-11-21T06:14:33.464Z,97354.00
2023-11-21T06:18:35.663Z,97356.00
2023-11-21T06:22:38.534Z,97375.00
2023-11-21T06:26:39.521Z,97378.00
2023-11-21T06:30:40.974Z,97384.00
2023-11-21T06:34:42.387Z,97381.00
2023-11-21T06:38:43.442Z,97386.00
2023-11-21T06:42:44.994Z,97391.00
2023-11-21T06:46:46.272Z,97397.00
2023-11-21T06:50:47.311Z,97405.00
2023-11-21T06:54:51.073Z,97413.00
2023-11-21T06:58:54.230Z,97424.00
2023-11-21T07:02:55.976Z,97426.00
2023-11-21T07:06:57.191Z,97430.00
2023-11-21T07:10:58.306Z,97440.00
2023-11-21T07:14:59.471Z,97439.00
2023-11-21T07:19:00.476Z,97448.00
2023-11-21T07:23:01.737Z,97457.00
2023-11-21T07:27:04.531Z,97463.00
2023-11-21T07:31:06.055Z,97466.00
2023-11-21T07:35:08.594Z,97466.00
2023-11-21T07:39:10.258Z,97471.00
2023-11-21T07:43:11.526Z,97485.00
2023-11-21T07:47:12.636Z,97487.00
2023-11-21T07:51:14.046Z,97493.00
2023-11-21T07:55:15.321Z,97489.00
2023-11-21T07:59:17.768Z,97485.00
2023-11-21T08:03:18.950Z,97495.00
2023-11-21T08:07:20.200Z,97502.00
2023-11-21T08:11:23.465Z,97505.00
2023-11-21T08:15:24.807Z,97517.00
2023-11-21T08:19:26.043Z,97531.00
2023-11-21T08:23:27.317Z,97528.00
2023-11-21T08:27:28.324Z,97539.00
2023-11-21T08:31:29.604Z,97541.00
2023-11-21T08:35:32.077Z,97548.00
2023-11-21T08:39:33.255Z,97541.00
2023-11-21T08:43:40.249Z,97550.00
2023-11-21T08:47:41.556Z,97552.00
2023-11-21T08:51:42.494Z,97564.00
2023-11-21T08:55:44.624Z,97574.00
2023-11-21T08:59:45.710Z,97569.00
2023-11-21T09:03:47.769Z,97560.00
2023-11-21T09:07:49.329Z,97558.00
2023-11-21T09:11:50.318Z,97567.00
2023-11-21T09:15:51.716Z,97574.00
2023-11-21T09:19:52.844Z,97574.00
2023-11-21T09:23:54.807Z,97588.00
2023-11-21T09:27:57.802Z,97579.00
2023-11-21T09:32:00.018Z,97598.00
2023-11-21T09:36:01.788Z,97595.00
2023-11-21T09:40:03.439Z,97610.00
2023-11-21T09:44:08.264Z,97613.00
2023-11-21T09:48:11.967Z,97609.00
2023-11-21T09:52:18.213Z,97612.00
2023-11-21T09:56:21.390Z,97604.00
2023-11-21T10:00:24.238Z,97609.00
2023-11-21T10:04:27.311Z,97614.00
2023-11-21T10:08:39.269Z,97622.00
2023-11-21T10:12:33.273Z,97617.00
2023-11-21T10:16:34.796Z,97625.00
2023-11-21T10:20:37.854Z,97633.00
2023-11-21T10:24:45.323Z,97636.00
2023-11-21T10:28:42.136Z,97639.00
2023-11-21T10:32:43.776Z,97640.00
2023-11-21T10:36:45.667Z,97655.00
2023-11-21T10:40:47.340Z,97645.00
2023-11-21T10:44:48.978Z,97653.00
2023-11-21T10:48:55.247Z,97640.00
2023-11-21T10:52:56.565Z,97636.00
2023-11-21T10:57:00.980Z,97639.00
2023-11-21T11:01:05.839Z,97650.00
2023-11-21T11:05:07.443Z,97648.00
2023-11-21T11:09:11.826Z,97647.00
2023-11-21T11:13:15.155Z,97644.00
2023-11-21T11:17:17.713Z,97642.00
2023-11-21T11:21:39.355Z,97636.00
2023-11-21T11:25:50.238Z,97645.00
2023-11-21T11:29:57.908Z,97635.00
2023-11-21T11:34:20.746Z,97642.00
2023-11-21T11:38:23.779Z,97649.00
2023-11-21T11:42:24.978Z,97649.00
2023-11-21T11:46:48.500Z,97662.00
2023-11-21T11:51:05.755Z,97651.00
2023-11-21T11:55:10.620Z,97652.00
2023-11-21T11:59:11.642Z,97651.00
2023-11-21T12:03:14.216Z,97640.00
2023-11-21T12:07:15.548Z,97645.00
2023-11-21T12:11:18.409Z,97657.00
2023-11-21T12:15:20.935Z,97655.00
2023-11-21T12:19:22.824Z,97654.00
2023-11-21T12:23:23.979Z,97663.00
2023-11-21T12:27:25.113Z,97667.00
2023-11-21T12:31:26.990Z,97670.00
2023-11-21T12:35:31.444Z,97683.00
2023-11-21T12:39:32.568Z,97688.00
2023-11-21T12:43:35.473Z,97699.00
2023-11-21T12:47:36.630Z,97692.00
2023-11-21T12:51:37.841Z,97693.00
2023-11-21T12:55:39.906Z,97702.00
2023-11-21T12:59:43.040Z,97698.00
2023-11-21T13:03:48.132Z,97696.00
2023-11-21T13:07:51.003Z,97692.00
2023-11-21T13:11:55.917Z,97695.00
2023-11-21T13:16:01.560Z,97699.00
2023-11-21T13:20:04.979Z,97700.00
2023-11-21T13:24:06.908Z,97701.00
2023-11-21T13:28:08.780Z,97713.00
2023-11-21T13:32:11.858Z,97717.00
2023-11-21T13:36:14.942Z,97737.00
2023-11-21T13:40:18.406Z,97733.00
2023-11-21T13:44:30.435Z,97732.00
2023-11-21T13:48:45.668Z,97731.00
2023-11-21T13:52:46.892Z,97738.00
2023-11-21T13:56:49.857Z,97745.00
2023-11-21T14:00:57.378Z,97754.00
2023-11-21T14:05:00.547Z,97758.00
2023-11-21T14:09:06.227Z,97757.00
2023-11-21T14:13:07.211Z,97752.00
2023-11-21T14:17:08.543Z,97759.00
2023-11-21T14:21:11.277Z,97755.00
2023-11-21T14:25:12.830Z,97760.00
2023-11-21T14:29:17.484Z,97773.00
2023-11-21T14:33:18.615Z,97776.00
2023-11-21T14:37:20.559Z,97769.00
2023-11-21T14:41:21.576Z,97769.00
2023-11-21T14:45:24.522Z,97774.00
2023-11-21T14:49:28.112Z,97771.00
2023-11-21T14:53:46.263Z,97773.00
2023-11-21T14:57:50.294Z,97782.00
2023-11-21T15:01:56.588Z,97787.00
2023-11-21T15:05:59.968Z,97800.00
2023-11-21T15:10:01.055Z,97804.00
2023-11-21T15:14:04.257Z,97811.00
2023-11-21T15:18:05.350Z,97808.00
2023-11-21T15:22:08.056Z,97806.00
2023-11-21T15:26:10.529Z,97818.00
2023-11-21T15:30:12.068Z,97826.00
2023-11-21T15:34:13.114Z,97828.00
2023-11-21T15:38:34.266Z,97829.00
2023-11-21T15:42:37.285Z,97827.00
2023-11-21T15:46:40.411Z,97838.00
2023-11-21T15:50:41.792Z,97842.00
2023-11-21T15:54:44.720Z,97840.00
2023-11-21T15:58:47.837Z,97836.00
2023-11-21T16:02:49.804Z,97845.00
2023-11-21T16:06:51.052Z,97841.00
2023-11-21T16:10:52.091Z,97847.00
2023-11-21T16:14:53.098Z,97848.00
2023-11-21T16:18:54.333Z,97849.00
2023-11-21T16:22:55.500Z,97860.00
2023-11-21T16:26:57.082Z,97865.00
2023-11-21T16:30:58.198Z,97869.00
2023-11-21T16:35:00.463Z,97878.00
2023-11-21T16:39:01.528Z,97879.00
2023-11-21T16:43:03.233Z,97891.00
2023-11-21T16:47:07.505Z,97891.00
2023-11-21T16:51:10.533Z,97900.00
2023-11-21T16:55:12.201Z,97909.00
2023-11-21T16:59:13.537Z,97910.00
2023-11-21T17:03:14.614Z,97929.00
2023-11-21T17:07:16.788Z,97924.00
2023-11-21T17:11:18.245Z,97927.00
2023-11-21T17:15:20.608Z,97929.00
2023-11-21T17:19:21.633Z,97936.00
2023-11-21T17:23:22.691Z,97937.00
2023-11-21T17:27:23.919Z,97943.00
2023-11-21T17:31:25.291Z,97943.00
2023-11-21T17:35:26.644Z,97957.00
2023-11-21T17:39:28.086Z,97961.00
2023-11-21T17:43:29.168Z,97962.00
2023-11-21T17:47:30.378Z,97977.00
2023-11-21T17:51:31.614Z,97973.00
2023-11-21T17:55:32.987Z,97981.00
2023-11-21T17:59:34.573Z,97976.00
2023-11-21T18:03:38.152Z,97999.00
2023-11-21T18:07:39.777Z,97989.00
2023-11-21T18:11:41.551Z,97987.00
2023-11-21T18:15:43.151Z,97990.00
2023-11-21T18:19:44.924Z,98007.00
2023-11-21T18:23:46.604Z,98035.00
2023-11-21T18:27:47.633Z,98042.00
2023-11-21T18:31:48.682Z,97947.00
2023-11-21T18:35:50.285Z,98050.00
2023-11-21T18:39:51.379Z,98050.00
2023-11-21T18:43:54.332Z,98064.00
2023-11-21T18:47:56.569Z,98076.00
2023-11-21T18:51:57.955Z,98093.00
2023-11-21T18:55:59.174Z,98092.00
2023-11-21T19:00:00.361Z,98094.00
2023-11-21T19:04:01.664Z,98104.00
2023-11-21T19:08:03.341Z,98129.00
2023-11-21T19:12:05.406Z,98139.00
2023-11-21T19:16:06.881Z,98118.00
2023-11-21T19:20:10.721Z,98145.00
2023-11-21T19:24:12.096Z,98150.00
2023-11-21T19:28:13.747Z,98155.00
2023-11-21T19:32:14.755Z,98160.00
2023-11-21T19:36:19.513Z,98190.00
2023-11-21T19:40:22.442Z,98163.00
2023-11-21T19:44:23.508Z,98159.00
2023-11-21T19:48:26.342Z,98200.00
2023-11-21T19:52:27.448Z,98187.00
2023-11-21T19:56:28.681Z,98201.00
2023-11-21T20:00:29.812Z,98211.00
2023-11-21T20:04:30.816Z,98207.00
2023-11-21T20:08:34.045Z,98208.00
2023-11-21T20:12:35.198Z,98207.00
2023-11-21T20:16:40.978Z,98215.00
2023-11-21T20:20:41.990Z,98224.00
2023-11-21T20:24:45.265Z,98242.00
2023-11-21T20:28:46.282Z,98243.00
2023-11-21T20:32:47.265Z,98238.00
2023-11-21T20:36:49.614Z,98257.00
2023-11-21T20:40:50.750Z,98256.00
2023-11-21T20:44:51.757Z,98260.00
2023-11-21T20:48:55.272Z,98270.00
2023-11-21T20:52:55.677Z,98266.00
2023-11-21T20:56:57.397Z,98281.00
2023-11-21T21:00:58.785Z,98282.00
2023-11-21T21:04:59.817Z,98298.00
2023-11-21T21:09:02.154Z,98293.00
2023-11-21T21:13:03.202Z,98311.00
2023-11-21T21:17:04.668Z,98303.00
2023-11-21T21:21:05.698Z,98307.00
2023-11-21T21:25:07.461Z,98286.00
2023-11-21T21:29:09.601Z,98326.00
2023-11-21T21:33:10.986Z,98321.00
2023-11-21T21:37:12.058Z,98323.00
2023-11-21T21:41:13.916Z,98334.00
2023-11-21T21:45:15.173Z,98329.00
2023-11-21T21:49:16.729Z,98326.00
2023-11-21T21:53:17.884Z,98330.00
2023-11-21T21:57:19.004Z,98345.00
2023-11-21T22:01:20.179Z,98340.00
2023-11-21T22:05:21.287Z,98346.00
2023-11-21T22:09:22.855Z,98351.00
2023-11-21T22:13:24.191Z,98360.00
2023-11-21T22:17:25.280Z,98377.00
2023-11-21T22:21:26.777Z,98378.00
2023-11-21T22:25:28.876Z,98377.00
2023-11-21T22:29:29.932Z,98378.00
2023-11-21T22:33:30.981Z,98384.00
2023-11-21T22:37:32.064Z,98394.00
2023-11-21T22:41:33.095Z,98387.00
2023-11-21T22:45:34.147Z,98388.00
2023-11-21T22:49:35.345Z,98400.00
2023-11-21T22:53:38.173Z,98406.00
2023-11-21T22:57:39.175Z,98406.00
2023-11-21T23:01:40.252Z,98412.00
2023-11-21T23:05:41.551Z,98417.00
2023-11-21T23:09:42.709Z,98415.00
2023-11-21T23:13:43.842Z,98421.00
2023-11-21T23:17:44.882Z,98428.00
2023-11-21T23:21:46.191Z,98428.00
2023-11-21T23:25:48.651Z,98433.00
2023-11-21T23:29:51.728Z,98429.00
2023-11-21T23:33:52.816Z,98430.00
2023-11-21T23:37:54.067Z,98434.00
2023-11-21T23:41:55.047Z,98431.00
2023-11-21T23:45:56.655Z,98422.00
2023-11-21T23:49:58.457Z,98423.00
2023-11-21T23:53:59.668Z,98434.00
2023-11-21T23:58:01.211Z,98433.00
